createdAt,value
2018-09-16T00:00:24.882Z,60.10
2018-09-16T00:02:31.333Z,60.40
2018-09-16T00:04:42.616Z,60.30
2018-09-16T00:06:51.696Z,60.30
2018-09-16T00:08:57.597Z,60.30
2018-09-16T00:11:06.317Z,60.50
2018-09-16T00:13:14.809Z,60.70
2018-09-16T00:15:20.911Z,60.60
2018-09-16T00:17:27.139Z,60.60
2018-09-16T00:19:36.824Z,60.40
2018-09-16T00:21:41.839Z,60.40
2018-09-16T00:23:47.539Z,60.30
2018-09-16T00:25:53.258Z,60.20
2018-09-16T00:28:03.584Z,60.10
2018-09-16T00:30:12.627Z,60.20
2018-09-16T00:32:23.839Z,60.20
2018-09-16T00:34:31.258Z,60.20
2018-09-16T00:36:38.249Z,60.10
2018-09-16T00:38:46.414Z,60.10
2018-09-16T00:40:51.044Z,61.00
2018-09-16T00:42:56.845Z,60.20
2018-09-16T00:45:04.417Z,60.30
2018-09-16T00:47:11.261Z,60.30
2018-09-16T00:49:15.880Z,60.30
2018-09-16T00:51:25.512Z,60.30
2018-09-16T00:53:31.927Z,60.50
2018-09-16T00:55:40.681Z,60.60
2018-09-16T00:57:46.988Z,60.70
2018-09-16T00:59:57.159Z,61.00
2018-09-16T01:02:03.398Z,61.00
2018-09-16T01:04:11.573Z,61.00
2018-09-16T01:06:21.335Z,61.00
2018-09-16T01:08:29.172Z,61.00
2018-09-16T01:10:38.065Z,60.90
2018-09-16T01:12:42.531Z,60.90
2018-09-16T01:14:51.493Z,60.70
2018-09-16T01:16:55.980Z,60.90
2018-09-16T01:19:03.118Z,60.90
2018-09-16T01:21:12.208Z,60.80
2018-09-16T01:23:18.609Z,60.80
2018-09-16T01:25:25.207Z,60.80
2018-09-16T01:27:32.543Z,60.60
2018-09-16T01:29:41.488Z,60.70
2018-09-16T01:31:50.970Z,60.50
2018-09-16T01:33:59.405Z,60.50
2018-09-16T01:36:06.256Z,60.40
2018-09-16T01:38:17.401Z,60.30
2018-09-16T01:40:22.028Z,60.50
2018-09-16T01:42:29.963Z,60.50
2018-09-16T01:44:38.107Z,60.90
2018-09-16T01:46:46.478Z,60.60
2018-09-16T01:48:55.312Z,60.50
2018-09-16T01:51:04.029Z,60.60
2018-09-16T01:53:12.103Z,60.70
2018-09-16T01:55:19.969Z,60.90
2018-09-16T01:57:27.297Z,60.80
2018-09-16T01:59:35.014Z,61.00
2018-09-16T02:01:41.478Z,61.30
2018-09-16T02:03:48.044Z,61.70
2018-09-16T02:05:53.156Z,61.60
2018-09-16T02:08:01.038Z,61.60
2018-09-16T02:10:05.537Z,61.60
2018-09-16T02:12:13.241Z,61.50
2018-09-16T02:14:23.404Z,61.30
2018-09-16T02:16:32.664Z,61.20
2018-09-16T02:18:41.102Z,61.10
2018-09-16T02:20:49.232Z,60.90
2018-09-16T02:23:00.238Z,60.10
2018-09-16T02:25:10.797Z,60.80
2018-09-16T02:27:17.867Z,60.90
2018-09-16T02:29:25.797Z,61.00
2018-09-16T02:31:35.527Z,61.00
2018-09-16T02:33:43.771Z,61.10
2018-09-16T02:35:48.536Z,61.20
2018-09-16T02:37:56.796Z,61.20
2018-09-16T02:40:02.913Z,61.20
2018-09-16T02:42:07.389Z,61.30
2018-09-16T02:44:16.537Z,61.50
2018-09-16T02:46:23.952Z,61.80
2018-09-16T02:48:29.678Z,61.60
2018-09-16T02:50:35.210Z,61.50
2018-09-16T02:52:39.687Z,61.40
2018-09-16T02:54:49.318Z,61.40
2018-09-16T02:57:00.033Z,61.40
2018-09-16T02:59:09.071Z,61.40
2018-09-16T03:01:15.829Z,61.40
2018-09-16T03:03:25.625Z,61.40
2018-09-16T03:05:37.882Z,61.50
2018-09-16T03:07:44.606Z,61.40
2018-09-16T03:09:51.834Z,61.30
2018-09-16T03:12:00.558Z,61.20
2018-09-16T03:14:08.171Z,61.30
2018-09-16T03:16:16.162Z,61.30
2018-09-16T03:18:25.588Z,61.40
2018-09-16T03:20:32.871Z,61.40
2018-09-16T03:22:40.144Z,61.50
2018-09-16T03:24:49.356Z,61.70
2018-09-16T03:26:58.600Z,61.80
2018-09-16T03:29:08.298Z,61.90
2018-09-16T03:31:14.061Z,62.10
2018-09-16T03:33:20.563Z,62.10
2018-09-16T03:35:25.112Z,62.00
2018-09-16T03:37:31.761Z,61.80
2018-09-16T03:39:42.030Z,61.70
2018-09-16T03:41:49.670Z,61.70
2018-09-16T03:43:57.122Z,61.60
2018-09-16T03:46:04.726Z,61.60
2018-09-16T03:48:11.382Z,61.50
2018-09-16T03:50:20.258Z,61.30
2018-09-16T03:52:30.273Z,61.70
2018-09-16T03:54:39.417Z,61.10
2018-09-16T03:56:43.875Z,61.20
2018-09-16T03:58:53.088Z,61.10
2018-09-16T04:00:59.807Z,61.20
2018-09-16T04:03:08.072Z,61.20
2018-09-16T04:05:19.413Z,61.20
2018-09-16T04:07:28.488Z,61.10
2018-09-16T04:09:33.063Z,61.10
2018-09-16T04:11:42.361Z,61.20
2018-09-16T04:13:50.010Z,61.40
2018-09-16T04:16:02.194Z,61.60
2018-09-16T04:18:08.151Z,61.70
2018-09-16T04:20:14.155Z,61.50
2018-09-16T04:22:20.060Z,61.50
2018-09-16T04:24:27.959Z,61.40
2018-09-16T04:26:35.739Z,61.30
2018-09-16T04:28:41.644Z,61.80
2018-09-16T04:30:48.551Z,61.30
2018-09-16T04:32:53.102Z,61.40
2018-09-16T04:34:57.687Z,61.60
2018-09-16T04:37:06.990Z,62.00
2018-09-16T04:39:11.863Z,62.10
2018-09-16T04:41:16.324Z,61.90
2018-09-16T04:43:21.810Z,62.20
2018-09-16T04:45:29.331Z,62.00
2018-09-16T04:47:37.485Z,62.00
2018-09-16T04:49:45.866Z,62.00
2018-09-16T04:51:52.028Z,61.90
2018-09-16T04:54:02.075Z,61.70
2018-09-16T04:56:10.623Z,61.60
2018-09-16T04:58:16.417Z,61.60
2018-09-16T05:00:24.976Z,61.60
2018-09-16T05:02:29.658Z,61.70
2018-09-16T05:04:34.093Z,61.60
2018-09-16T05:06:43.081Z,61.40
2018-09-16T05:08:48.074Z,61.50
2018-09-16T05:10:54.303Z,62.40
2018-09-16T05:13:00.688Z,62.60
2018-09-16T05:15:05.451Z,62.00
2018-09-16T05:17:14.811Z,62.10
2018-09-16T05:19:23.604Z,62.30
2018-09-16T05:21:29.482Z,62.30
2018-09-16T05:23:39.229Z,62.10
2018-09-16T05:25:46.239Z,62.10
2018-09-16T05:27:56.891Z,62.20
2018-09-16T05:30:02.661Z,62.10
2018-09-16T05:32:09.306Z,62.00
2018-09-16T05:34:15.993Z,61.90
2018-09-16T05:36:20.718Z,61.80
2018-09-16T05:38:30.295Z,61.90
2018-09-16T05:40:38.002Z,62.10
2018-09-16T05:42:42.599Z,62.30
2018-09-16T05:44:52.326Z,62.40
2018-09-16T05:47:00.436Z,62.40
2018-09-16T05:49:09.431Z,62.60
2018-09-16T05:51:15.641Z,62.60
2018-09-16T05:53:21.918Z,62.70
2018-09-16T05:55:32.641Z,62.90
2018-09-16T05:57:38.381Z,63.10
2018-09-16T05:59:46.860Z,63.10
2018-09-16T06:01:55.048Z,63.20
2018-09-16T06:04:04.182Z,63.30
2018-09-16T06:06:10.817Z,63.50
2018-09-16T06:08:16.527Z,63.60
2018-09-16T06:10:22.689Z,64.20
2018-09-16T06:12:30.555Z,63.90
2018-09-16T06:14:37.968Z,64.00
2018-09-16T06:16:45.002Z,64.20
2018-09-16T06:18:54.015Z,64.20
2018-09-16T06:21:03.704Z,64.40
2018-09-16T06:23:08.599Z,64.50
2018-09-16T06:25:17.840Z,64.60
2018-09-16T06:27:23.319Z,64.70
2018-09-16T06:29:31.307Z,64.90
2018-09-16T06:31:38.802Z,65.00
2018-09-16T06:33:47.011Z,65.00
2018-09-16T06:35:55.251Z,65.10
2018-09-16T06:38:06.099Z,66.20
2018-09-16T06:40:16.452Z,66.50
2018-09-16T06:42:25.837Z,65.30
2018-09-16T06:44:33.374Z,66.00
2018-09-16T06:46:38.409Z,66.30
2018-09-16T06:48:44.409Z,66.30
2018-09-16T06:50:51.222Z,66.40
2018-09-16T06:52:59.608Z,66.60
2018-09-16T06:55:08.475Z,66.70
2018-09-16T06:57:16.975Z,66.90
2018-09-16T06:59:27.159Z,66.50
2018-09-16T07:01:36.050Z,66.60
2018-09-16T07:03:45.064Z,66.60
2018-09-16T07:05:51.570Z,66.70
2018-09-16T07:08:02.934Z,66.50
2018-09-16T07:10:10.771Z,66.60
2018-09-16T07:12:16.415Z,66.50
2018-09-16T07:14:24.015Z,66.50
2018-09-16T07:16:33.638Z,66.40
2018-09-16T07:18:40.439Z,66.70
2018-09-16T07:20:47.215Z,66.90
2018-09-16T07:22:51.661Z,67.00
2018-09-16T07:25:02.545Z,67.10
2018-09-16T07:27:11.235Z,67.50
2018-09-16T07:29:21.416Z,67.70
2018-09-16T07:31:29.046Z,67.70
2018-09-16T07:33:37.509Z,68.10
2018-09-16T07:35:43.456Z,68.30
2018-09-16T07:37:48.132Z,68.40
2018-09-16T07:39:52.883Z,68.80
2018-09-16T07:42:00.907Z,68.90
2018-09-16T07:44:08.708Z,69.00
2018-09-16T07:46:16.237Z,69.40
2018-09-16T07:48:24.708Z,69.80
2018-09-16T07:50:32.044Z,70.00
2018-09-16T07:52:41.467Z,70.30
2018-09-16T07:54:47.905Z,70.60
2018-09-16T07:56:54.521Z,70.80
2018-09-16T07:59:04.372Z,71.20
2018-09-16T08:01:09.685Z,71.40
2018-09-16T08:03:14.250Z,71.50
2018-09-16T08:05:20.600Z,71.70
2018-09-16T08:07:25.206Z,71.80
2018-09-16T08:09:31.966Z,72.00
2018-09-16T08:11:40.625Z,72.10
2018-09-16T08:13:48.996Z,72.30
2018-09-16T08:15:56.953Z,72.50
2018-09-16T08:18:01.953Z,72.70
2018-09-16T08:20:09.076Z,72.80
2018-09-16T08:22:19.954Z,72.70
2018-09-16T08:24:29.295Z,72.90
2018-09-16T08:26:35.678Z,72.90
2018-09-16T08:28:40.493Z,72.70
2018-09-16T08:30:48.004Z,72.60
2018-09-16T08:32:52.541Z,72.30
2018-09-16T08:34:58.471Z,72.10
2018-09-16T08:37:05.132Z,72.20
2018-09-16T08:39:12.727Z,72.00
2018-09-16T08:41:18.929Z,71.90
2018-09-16T08:43:25.766Z,72.10
2018-09-16T08:45:32.578Z,72.10
2018-09-16T08:47:37.935Z,72.10
2018-09-16T08:49:43.922Z,71.90
2018-09-16T08:51:56.221Z,71.80
2018-09-16T08:54:04.885Z,70.60
2018-09-16T08:56:14.042Z,70.00
2018-09-16T08:58:21.621Z,68.60
2018-09-16T09:00:30.164Z,67.50
2018-09-16T09:02:36.053Z,65.00
2018-09-16T09:04:41.697Z,64.10
2018-09-16T09:06:47.106Z,63.50
2018-09-16T09:08:54.927Z,62.00
2018-09-16T09:11:01.657Z,61.80
2018-09-16T09:13:10.043Z,61.10
2018-09-16T09:15:14.491Z,59.50
2018-09-16T09:17:21.857Z,60.00
2018-09-16T09:19:27.559Z,58.50
2018-09-16T09:21:36.942Z,57.90
2018-09-16T09:23:43.897Z,57.10
2018-09-16T09:25:50.214Z,56.10
2018-09-16T09:27:55.960Z,56.10
2018-09-16T09:30:02.859Z,56.00
2018-09-16T09:32:08.868Z,55.10
2018-09-16T09:34:15.866Z,54.30
2018-09-16T09:36:22.584Z,54.00
2018-09-16T09:38:27.866Z,54.20
2018-09-16T09:40:34.318Z,53.60
2018-09-16T09:42:41.610Z,52.10
2018-09-16T09:44:48.375Z,51.60
2018-09-16T09:46:56.358Z,50.90
2018-09-16T09:49:03.100Z,50.80
2018-09-16T09:51:12.412Z,50.60
2018-09-16T09:53:19.528Z,50.40
2018-09-16T09:55:27.101Z,50.10
2018-09-16T09:57:33.547Z,49.40
2018-09-16T09:59:39.234Z,49.00
2018-09-16T10:01:46.500Z,48.50
2018-09-16T10:03:52.532Z,49.30
2018-09-16T10:06:00.345Z,49.20
2018-09-16T10:08:06.854Z,47.70
2018-09-16T10:10:12.881Z,47.50
2018-09-16T10:12:20.358Z,46.50
2018-09-16T10:14:28.564Z,45.90
2018-09-16T10:16:35.254Z,45.60
2018-09-16T10:18:40.984Z,45.30
2018-09-16T10:20:48.537Z,45.20
2018-09-16T10:22:53.963Z,44.50
2018-09-16T10:25:01.981Z,44.10
2018-09-16T10:27:07.140Z,44.30
2018-09-16T10:29:13.317Z,44.30
2018-09-16T10:31:19.951Z,44.50
2018-09-16T10:33:28.906Z,43.80
2018-09-16T10:35:37.673Z,43.70
2018-09-16T10:37:43.667Z,44.30
2018-09-16T10:39:49.864Z,43.90
2018-09-16T10:41:55.146Z,43.50
2018-09-16T10:44:01.684Z,43.10
2018-09-16T10:46:10.197Z,42.90
2018-09-16T10:48:19.062Z,43.30
2018-09-16T10:50:25.874Z,43.10
2018-09-16T10:52:30.419Z,42.30
2018-09-16T10:54:35.116Z,42.40
2018-09-16T10:56:39.619Z,42.00
2018-09-16T10:58:44.066Z,41.80
2018-09-16T11:00:48.514Z,41.30
2018-09-16T11:02:53.277Z,41.00
2018-09-16T11:04:57.719Z,41.10
2018-09-16T11:07:02.886Z,40.40
2018-09-16T11:09:10.159Z,40.30
2018-09-16T11:11:14.798Z,40.20
2018-09-16T11:13:19.202Z,40.20
2018-09-16T11:15:26.955Z,39.70
2018-09-16T11:17:31.467Z,39.50
2018-09-16T11:19:36.110Z,40.70
2018-09-16T11:21:41.377Z,39.20
2018-09-16T11:23:45.971Z,38.90
2018-09-16T11:25:52.335Z,38.50
2018-09-16T11:28:02.864Z,38.60
2018-09-16T11:30:09.496Z,38.60
2018-09-16T11:32:17.272Z,38.40
2018-09-16T11:34:25.120Z,38.10
2018-09-16T11:36:32.377Z,37.80
2018-09-16T11:38:37.194Z,37.10
2018-09-16T11:40:47.097Z,37.50
2018-09-16T11:42:56.040Z,37.30
2018-09-16T11:45:01.954Z,37.10
2018-09-16T11:47:07.249Z,36.70
2018-09-16T11:49:16.462Z,36.90
2018-09-16T11:51:22.273Z,36.40
2018-09-16T11:53:27.779Z,36.50
2018-09-16T11:55:38.981Z,36.70
2018-09-16T11:57:50.829Z,36.40
2018-09-16T11:59:56.429Z,36.40
2018-09-16T12:02:03.776Z,36.10
2018-09-16T12:04:09.154Z,36.00
2018-09-16T12:06:13.677Z,35.90
2018-09-16T12:08:18.913Z,36.10
2018-09-16T12:10:27.073Z,36.40
2018-09-16T12:12:33.311Z,35.90
2018-09-16T12:14:39.583Z,36.60
2018-09-16T12:16:47.531Z,36.10
2018-09-16T12:18:53.854Z,35.70
2018-09-16T12:20:58.772Z,35.70
2018-09-16T12:23:05.903Z,36.10
2018-09-16T12:25:12.902Z,36.20
2018-09-16T12:27:19.495Z,36.00
2018-09-16T12:29:26.615Z,35.70
2018-09-16T12:31:33.903Z,35.00
2018-09-16T12:33:40.174Z,34.60
2018-09-16T12:35:47.076Z,34.80
2018-09-16T12:37:52.300Z,34.90
2018-09-16T12:39:58.198Z,35.10
2018-09-16T12:42:08.232Z,34.90
2018-09-16T12:44:17.563Z,34.80
2018-09-16T12:46:24.934Z,34.50
2018-09-16T12:48:31.490Z,34.50
2018-09-16T12:50:37.268Z,34.40
2018-09-16T12:52:45.380Z,34.90
2018-09-16T12:54:52.167Z,34.30
2018-09-16T12:56:57.932Z,34.30
2018-09-16T12:59:04.636Z,34.20
2018-09-16T13:01:11.195Z,34.10
2018-09-16T13:03:16.455Z,33.80
2018-09-16T13:05:24.821Z,33.70
2018-09-16T13:07:29.284Z,34.00
2018-09-16T13:09:38.363Z,33.70
2018-09-16T13:11:47.618Z,33.80
2018-09-16T13:13:56.448Z,34.50
2018-09-16T13:16:04.816Z,33.60
2018-09-16T13:18:11.983Z,33.20
2018-09-16T13:20:20.340Z,33.40
2018-09-16T13:22:26.966Z,33.30
2018-09-16T13:24:32.754Z,33.30
2018-09-16T13:26:39.545Z,33.50
2018-09-16T13:28:47.909Z,33.20
2018-09-16T13:30:55.767Z,33.00
2018-09-16T13:33:04.615Z,33.70
2018-09-16T13:35:14.459Z,35.10
2018-09-16T13:37:23.606Z,33.70
2018-09-16T13:39:31.876Z,32.90
2018-09-16T13:41:38.816Z,32.60
2018-09-16T13:43:47.978Z,32.30
2018-09-16T13:45:53.678Z,32.40
2018-09-16T13:48:02.063Z,32.20
2018-09-16T13:50:09.218Z,32.30
2018-09-16T13:52:14.615Z,31.90
2018-09-16T13:54:19.799Z,32.60
2018-09-16T13:56:26.107Z,32.10
2018-09-16T13:58:31.086Z,32.00
2018-09-16T14:00:35.631Z,33.20
2018-09-16T14:02:40.152Z,31.80
2018-09-16T14:04:45.152Z,31.70
2018-09-16T14:06:50.436Z,31.70
2018-09-16T14:08:57.091Z,31.60
2018-09-16T14:11:04.798Z,31.50
2018-09-16T14:13:13.532Z,31.60
2018-09-16T14:15:23.416Z,31.90
2018-09-16T14:17:34.038Z,32.50
2018-09-16T14:19:40.629Z,31.50
2018-09-16T14:21:45.206Z,31.20
2018-09-16T14:23:49.617Z,31.50
2018-09-16T14:25:54.584Z,32.00
2018-09-16T14:27:59.030Z,32.80
2018-09-16T14:30:03.547Z,31.80
2018-09-16T14:32:08.598Z,31.80
2018-09-16T14:34:13.119Z,32.20
2018-09-16T14:36:17.753Z,32.40
2018-09-16T14:38:22.443Z,33.10
2018-09-16T14:40:26.990Z,33.50
2018-09-16T14:42:31.654Z,33.50
2018-09-16T14:44:36.071Z,33.10
2018-09-16T14:46:40.588Z,32.80
2018-09-16T14:48:44.990Z,33.20
2018-09-16T14:50:49.472Z,32.50
2018-09-16T14:52:57.123Z,32.60
2018-09-16T14:55:03.330Z,33.30
2018-09-16T14:57:12.127Z,34.20
2018-09-16T14:59:20.858Z,33.70
2018-09-16T15:01:28.186Z,33.20
2018-09-16T15:03:33.946Z,33.20
2018-09-16T15:05:42.059Z,32.70
2018-09-16T15:07:47.701Z,32.60
2018-09-16T15:09:53.280Z,32.10
2018-09-16T15:12:03.058Z,32.00
2018-09-16T15:14:10.599Z,31.60
2018-09-16T15:16:19.002Z,31.20
2018-09-16T15:18:25.431Z,31.80
2018-09-16T15:20:31.889Z,32.20
2018-09-16T15:22:38.859Z,32.80
2018-09-16T15:24:44.373Z,33.20
2018-09-16T15:26:48.941Z,33.90
2018-09-16T15:28:53.347Z,34.70
2018-09-16T15:30:57.815Z,35.60
2018-09-16T15:33:02.239Z,35.80
2018-09-16T15:35:06.738Z,36.40
2018-09-16T15:37:12.038Z,37.10
2018-09-16T15:39:16.880Z,37.40
2018-09-16T15:41:21.295Z,37.80
2018-09-16T15:43:25.690Z,38.20
2018-09-16T15:45:30.143Z,38.40
2018-09-16T15:47:34.580Z,38.60
2018-09-16T15:49:39.026Z,38.80
2018-09-16T15:51:43.678Z,39.30
2018-09-16T15:53:48.129Z,40.10
2018-09-16T15:55:52.582Z,41.00
2018-09-16T15:57:56.958Z,40.60
2018-09-16T16:00:01.384Z,40.70
2018-09-16T16:02:05.860Z,41.10
2018-09-16T16:04:10.315Z,41.50
2018-09-16T16:06:14.787Z,41.80
2018-09-16T16:08:19.174Z,41.80
2018-09-16T16:10:23.645Z,41.70
2018-09-16T16:12:28.135Z,41.90
2018-09-16T16:14:32.659Z,42.00
2018-09-16T16:16:37.169Z,42.30
2018-09-16T16:18:41.580Z,42.40
2018-09-16T16:20:46.044Z,42.80
2018-09-16T16:22:50.521Z,43.30
2018-09-16T16:24:54.973Z,43.60
2018-09-16T16:26:59.410Z,43.90
2018-09-16T16:29:03.881Z,44.30
2018-09-16T16:31:08.334Z,44.70
2018-09-16T16:33:12.718Z,45.00
2018-09-16T16:35:17.151Z,45.30
2018-09-16T16:37:22.158Z,45.80
2018-09-16T16:39:26.665Z,46.20
2018-09-16T16:41:31.122Z,46.40
2018-09-16T16:43:36.702Z,46.40
2018-09-16T16:45:41.408Z,46.40
2018-09-16T16:47:45.806Z,46.40
2018-09-16T16:49:50.246Z,46.60
2018-09-16T16:51:54.733Z,46.70
2018-09-16T16:53:59.146Z,47.00
2018-09-16T16:56:10.411Z,47.10
2018-09-16T16:58:14.874Z,46.60
2018-09-16T17:00:20.703Z,47.40
2018-09-16T17:02:25.115Z,47.60
2018-09-16T17:04:29.571Z,47.70
2018-09-16T17:06:34.363Z,48.00
2018-09-16T17:08:38.814Z,48.30
2018-09-16T17:10:43.212Z,48.40
2018-09-16T17:12:47.654Z,48.60
2018-09-16T17:14:52.123Z,48.80
2018-09-16T17:16:57.311Z,49.00
2018-09-16T17:19:01.922Z,49.20
2018-09-16T17:21:06.343Z,49.20
2018-09-16T17:23:10.803Z,49.40
2018-09-16T17:25:15.224Z,49.40
2018-09-16T17:27:19.678Z,49.40
2018-09-16T17:29:24.134Z,49.50
2018-09-16T17:31:28.578Z,49.30
2018-09-16T17:33:33.042Z,49.10
2018-09-16T17:35:37.641Z,49.30
2018-09-16T17:37:42.127Z,49.20
2018-09-16T17:39:46.535Z,49.40
2018-09-16T17:41:51.017Z,49.50
2018-09-16T17:43:55.741Z,49.60
2018-09-16T17:46:00.264Z,49.50
2018-09-16T17:48:04.743Z,49.40
2018-09-16T17:50:09.233Z,49.80
2018-09-16T17:52:13.704Z,50.00
2018-09-16T17:54:18.130Z,50.20
2018-09-16T17:56:22.644Z,50.20
2018-09-16T17:58:27.371Z,50.10
2018-09-16T18:00:31.805Z,50.10
2018-09-16T18:02:37.395Z,50.10
2018-09-16T18:04:41.858Z,50.30
2018-09-16T18:06:46.294Z,50.20
2018-09-16T18:08:50.791Z,50.30
2018-09-16T18:10:55.354Z,50.30
2018-09-16T18:12:59.915Z,50.40
2018-09-16T18:15:04.413Z,50.50
2018-09-16T18:17:08.975Z,50.60
2018-09-16T18:19:13.382Z,50.70
2018-09-16T18:21:19.296Z,50.90
2018-09-16T18:23:24.359Z,50.90
2018-09-16T18:25:29.656Z,51.00
2018-09-16T18:27:34.347Z,51.10
2018-09-16T18:29:38.783Z,51.30
2018-09-16T18:31:43.235Z,51.30
2018-09-16T18:33:47.940Z,51.30
2018-09-16T18:35:52.398Z,51.30
2018-09-16T18:37:56.945Z,51.40
2018-09-16T18:40:01.927Z,51.40
2018-09-16T18:42:06.366Z,51.50
2018-09-16T18:44:10.802Z,51.60
2018-09-16T18:46:16.353Z,51.60
2018-09-16T18:48:20.751Z,51.60
2018-09-16T18:50:25.744Z,51.60
2018-09-16T18:52:30.513Z,51.60
2018-09-16T18:54:36.376Z,51.60
2018-09-16T18:56:40.855Z,51.60
2018-09-16T18:58:46.351Z,51.60
2018-09-16T19:00:50.914Z,51.70
2018-09-16T19:02:56.119Z,51.90
2018-09-16T19:05:01.130Z,52.10
2018-09-16T19:07:06.439Z,52.00
2018-09-16T19:09:11.881Z,52.70
2018-09-16T19:11:16.950Z,52.20
2018-09-16T19:13:21.937Z,52.30
2018-09-16T19:15:27.199Z,52.30
2018-09-16T19:17:33.326Z,52.40
2018-09-16T19:19:38.729Z,52.40
2018-09-16T19:21:43.250Z,52.60
2018-09-16T19:23:48.198Z,52.70
2018-09-16T19:25:52.671Z,52.70
2018-09-16T19:27:57.458Z,52.90
2018-09-16T19:30:02.227Z,53.60
2018-09-16T19:32:07.776Z,53.00
2018-09-16T19:34:12.531Z,52.90
2018-09-16T19:36:17.946Z,52.90
2018-09-16T19:38:22.759Z,53.10
2018-09-16T19:40:27.315Z,53.10
2018-09-16T19:42:32.076Z,53.20
2018-09-16T19:44:36.685Z,53.30
2018-09-16T19:46:41.982Z,53.40
2018-09-16T19:48:47.560Z,53.40
2018-09-16T19:50:52.579Z,53.40
2018-09-16T19:52:57.530Z,53.40
2018-09-16T19:55:02.238Z,53.40
2018-09-16T19:57:07.173Z,53.50
2018-09-16T19:59:11.714Z,53.60
2018-09-16T20:01:16.406Z,53.60
2018-09-16T20:03:21.179Z,54.60
2018-09-16T20:05:26.151Z,54.40
2018-09-16T20:07:30.795Z,54.50
2018-09-16T20:09:36.439Z,54.40
2018-09-16T20:11:41.453Z,54.40
2018-09-16T20:13:47.139Z,54.50
2018-09-16T20:15:51.698Z,54.50
2018-09-16T20:17:56.129Z,54.50
2018-09-16T20:20:01.867Z,54.50
2018-09-16T20:22:09.427Z,54.00
2018-09-16T20:24:14.567Z,54.60
2018-09-16T20:26:19.508Z,54.60
2018-09-16T20:28:24.581Z,54.80
2018-09-16T20:30:30.016Z,54.80
2018-09-16T20:32:35.387Z,55.00
2018-09-16T20:34:41.232Z,54.90
2018-09-16T20:36:46.149Z,55.00
2018-09-16T20:38:50.881Z,54.80
2018-09-16T20:40:55.731Z,54.80
2018-09-16T20:43:01.744Z,54.80
2018-09-16T20:45:07.343Z,55.00
2018-09-16T20:47:13.466Z,55.10
2018-09-16T20:49:17.972Z,55.10
2018-09-16T20:51:22.755Z,55.20
2018-09-16T20:53:27.956Z,55.40
2018-09-16T20:55:33.081Z,55.40
2018-09-16T20:57:38.038Z,55.40
2018-09-16T20:59:42.738Z,55.60
2018-09-16T21:01:49.314Z,55.70
2018-09-16T21:03:54.031Z,55.80
2018-09-16T21:05:58.618Z,55.90
2018-09-16T21:08:03.031Z,56.00
2018-09-16T21:10:08.209Z,56.10
2018-09-16T21:12:12.857Z,56.20
2018-09-16T21:14:20.141Z,56.40
2018-09-16T21:16:24.543Z,56.50
2018-09-16T21:18:30.382Z,56.60
2018-09-16T21:20:38.629Z,56.60
2018-09-16T21:22:43.144Z,56.60
2018-09-16T21:24:47.718Z,56.60
2018-09-16T21:26:52.295Z,56.70
2018-09-16T21:28:57.022Z,56.80
2018-09-16T21:31:02.243Z,56.80
2018-09-16T21:33:06.796Z,56.90
2018-09-16T21:35:11.332Z,56.80
2018-09-16T21:37:15.754Z,56.80
2018-09-16T21:39:20.220Z,56.80
2018-09-16T21:41:24.742Z,56.80
2018-09-16T21:43:29.148Z,56.70
2018-09-16T21:45:33.746Z,56.70
2018-09-16T21:47:38.285Z,56.70
2018-09-16T21:49:42.774Z,56.70
2018-09-16T21:51:47.379Z,56.60
2018-09-16T21:53:56.892Z,56.60
2018-09-16T21:56:01.320Z,56.60
2018-09-16T21:58:05.816Z,56.60
2018-09-16T22:00:10.480Z,56.50
2018-09-16T22:02:14.898Z,56.50
2018-09-16T22:04:19.355Z,56.60
2018-09-16T22:06:24.066Z,56.70
2018-09-16T22:08:28.509Z,56.70
2018-09-16T22:10:32.983Z,56.80
2018-09-16T22:12:37.460Z,56.70
2018-09-16T22:14:43.250Z,56.70
2018-09-16T22:16:47.893Z,56.80
2018-09-16T22:18:52.398Z,56.90
2018-09-16T22:20:56.929Z,56.90
2018-09-16T22:23:01.343Z,56.90
2018-09-16T22:25:05.903Z,57.00
2018-09-16T22:27:10.365Z,57.10
2018-09-16T22:29:14.868Z,57.00
2018-09-16T22:31:19.299Z,57.10
2018-09-16T22:33:23.835Z,57.20
2018-09-16T22:35:28.702Z,57.30
2018-09-16T22:37:33.213Z,57.30
2018-09-16T22:39:37.626Z,57.30
2018-09-16T22:41:43.202Z,57.40
2018-09-16T22:43:47.638Z,57.40
2018-09-16T22:45:52.042Z,57.40
2018-09-16T22:47:56.473Z,57.50
2018-09-16T22:50:00.958Z,58.20
2018-09-16T22:52:05.673Z,57.60
2018-09-16T22:54:10.092Z,57.60
2018-09-16T22:56:16.468Z,57.70
2018-09-16T22:58:21.038Z,57.60
2018-09-16T23:00:25.470Z,57.60
2018-09-16T23:02:29.960Z,57.60
2018-09-16T23:04:34.452Z,57.60
2018-09-16T23:06:38.910Z,57.70
2018-09-16T23:08:43.630Z,57.70
2018-09-16T23:10:48.066Z,58.30
2018-09-16T23:12:52.519Z,58.50
2018-09-16T23:14:56.962Z,57.90
2018-09-16T23:17:01.449Z,58.00
2018-09-16T23:19:06.099Z,58.10
2018-09-16T23:21:10.486Z,58.20
2018-09-16T23:23:14.999Z,58.30
2018-09-16T23:25:19.418Z,58.30
2018-09-16T23:27:24.105Z,58.20
2018-09-16T23:29:28.482Z,58.30
2018-09-16T23:31:32.916Z,58.40
2018-09-16T23:33:37.339Z,58.40
2018-09-16T23:35:41.775Z,58.40
2018-09-16T23:37:46.234Z,58.50
2018-09-16T23:39:50.666Z,58.50
2018-09-16T23:41:55.138Z,58.20
2018-09-16T23:43:59.608Z,58.60
2018-09-16T23:46:04.227Z,58.70
2018-09-16T23:48:08.690Z,58.70
2018-09-16T23:50:13.259Z,58.80
2018-09-16T23:52:17.698Z,58.80
2018-09-16T23:54:22.102Z,58.90
2018-09-16T23:56:26.772Z,58.80
2018-09-16T23:58:31.248Z,58.80
